sensor_id;sensor_type;location;lat;lon;timestamp;P1;durP1;ratioP1;P2;durP2;ratioP2
22907;SDS011;11620;50.050;8.690;2023-04-03T00:02:36;0.70;;;0.70;;
22907;SDS011;11620;50.050;8.690;2023-04-03T00:05:22;0.80;;;0.80;;
22907;SDS011;11620;50.050;8.690;2023-04-03T00:08:08;0.80;;;0.80;;
22907;SDS011;11620;50.050;8.690;2023-04-03T00:10:55;0.80;;;0.80;;
22907;SDS011;11620;50.050;8.690;2023-04-03T00:13:41;0.80;;;0.80;;
22907;SDS011;11620;50.050;8.690;2023-04-03T00:16:28;0.80;;;0.80;;
22907;SDS011;11620;50.050;8.690;2023-04-03T00:19:14;0.70;;;0.70;;
22907;SDS011;11620;50.050;8.690;2023-04-03T00:22:01;0.80;;;0.80;;
22907;SDS011;11620;50.050;8.690;2023-04-03T00:24:47;0.73;;;0.73;;
22907;SDS011;11620;50.050;8.690;2023-04-03T00:27:35;0.70;;;0.70;;
22907;SDS011;11620;50.050;8.690;2023-04-03T00:30:23;0.80;;;0.80;;
22907;SDS011;11620;50.050;8.690;2023-04-03T00:33:11;0.80;;;0.80;;
22907;SDS011;11620;50.050;8.690;2023-04-03T00:35:58;0.80;;;0.80;;
22907;SDS011;11620;50.050;8.690;2023-04-03T00:38:45;0.70;;;0.70;;
22907;SDS011;11620;50.050;8.690;2023-04-03T00:41:31;0.80;;;0.80;;
22907;SDS011;11620;50.050;8.690;2023-04-03T00:44:21;0.77;;;0.77;;
22907;SDS011;11620;50.050;8.690;2023-04-03T00:47:29;0.80;;;0.80;;
22907;SDS011;11620;50.050;8.690;2023-04-03T00:50:16;0.70;;;0.70;;
22907;SDS011;11620;50.050;8.690;2023-04-03T00:53:03;0.70;;;0.70;;
22907;SDS011;11620;50.050;8.690;2023-04-03T00:55:51;0.70;;;0.70;;
22907;SDS011;11620;50.050;8.690;2023-04-03T00:58:43;0.67;;;0.67;;
22907;SDS011;11620;50.050;8.690;2023-04-03T01:01:36;0.60;;;0.60;;
22907;SDS011;11620;50.050;8.690;2023-04-03T01:04:26;0.87;;;0.87;;
22907;SDS011;11620;50.050;8.690;2023-04-03T01:07:16;0.80;;;0.80;;
22907;SDS011;11620;50.050;8.690;2023-04-03T01:10:05;0.70;;;0.70;;
22907;SDS011;11620;50.050;8.690;2023-04-03T01:12:53;0.70;;;0.70;;
22907;SDS011;11620;50.050;8.690;2023-04-03T01:15:40;0.80;;;0.80;;
22907;SDS011;11620;50.050;8.690;2023-04-03T01:18:26;0.70;;;0.70;;
22907;SDS011;11620;50.050;8.690;2023-04-03T01:21:23;0.80;;;0.80;;
22907;SDS011;11620;50.050;8.690;2023-04-03T01:24:35;0.70;;;0.70;;
22907;SDS011;11620;50.050;8.690;2023-04-03T01:27:24;0.87;;;0.87;;
22907;SDS011;11620;50.050;8.690;2023-04-03T01:30:10;0.70;;;0.70;;
22907;SDS011;11620;50.050;8.690;2023-04-03T01:32:58;0.70;;;0.70;;
22907;SDS011;11620;50.050;8.690;2023-04-03T01:35:45;0.80;;;0.80;;
22907;SDS011;11620;50.050;8.690;2023-04-03T01:38:31;0.80;;;0.80;;
22907;SDS011;11620;50.050;8.690;2023-04-03T01:41:17;0.70;;;0.70;;
22907;SDS011;11620;50.050;8.690;2023-04-03T01:44:04;0.80;;;0.80;;
22907;SDS011;11620;50.050;8.690;2023-04-03T01:46:50;0.70;;;0.70;;
22907;SDS011;11620;50.050;8.690;2023-04-03T01:49:37;0.70;;;0.70;;
22907;SDS011;11620;50.050;8.690;2023-04-03T01:52:23;0.70;;;0.70;;
22907;SDS011;11620;50.050;8.690;2023-04-03T01:55:10;0.80;;;0.80;;
22907;SDS011;11620;50.050;8.690;2023-04-03T01:57:56;0.77;;;0.77;;
22907;SDS011;11620;50.050;8.690;2023-04-03T02:00:42;0.70;;;0.70;;
22907;SDS011;11620;50.050;8.690;2023-04-03T02:03:29;0.80;;;0.80;;
22907;SDS011;11620;50.050;8.690;2023-04-03T02:06:15;0.70;;;0.70;;
22907;SDS011;11620;50.050;8.690;2023-04-03T02:09:02;0.70;;;0.70;;
22907;SDS011;11620;50.050;8.690;2023-04-03T02:11:49;0.80;;;0.80;;
22907;SDS011;11620;50.050;8.690;2023-04-03T02:14:35;0.70;;;0.70;;
22907;SDS011;11620;50.050;8.690;2023-04-03T02:17:21;0.70;;;0.70;;
22907;SDS011;11620;50.050;8.690;2023-04-03T02:20:08;0.63;;;0.63;;
22907;SDS011;11620;50.050;8.690;2023-04-03T02:22:54;0.70;;;0.70;;
22907;SDS011;11620;50.050;8.690;2023-04-03T02:25:41;0.60;;;0.60;;
22907;SDS011;11620;50.050;8.690;2023-04-03T02:28:27;0.80;;;0.80;;
22907;SDS011;11620;50.050;8.690;2023-04-03T02:31:13;0.73;;;0.73;;
22907;SDS011;11620;50.050;8.690;2023-04-03T02:34:02;0.63;;;0.63;;
22907;SDS011;11620;50.050;8.690;2023-04-03T02:36:48;0.70;;;0.70;;
22907;SDS011;11620;50.050;8.690;2023-04-03T02:39:34;0.67;;;0.67;;
22907;SDS011;11620;50.050;8.690;2023-04-03T02:42:21;0.80;;;0.80;;
22907;SDS011;11620;50.050;8.690;2023-04-03T02:45:07;0.80;;;0.80;;
22907;SDS011;11620;50.050;8.690;2023-04-03T02:47:54;0.70;;;0.70;;
22907;SDS011;11620;50.050;8.690;2023-04-03T02:50:40;0.70;;;0.70;;
22907;SDS011;11620;50.050;8.690;2023-04-03T02:53:27;0.90;;;0.90;;
22907;SDS011;11620;50.050;8.690;2023-04-03T02:56:13;0.70;;;0.70;;
22907;SDS011;11620;50.050;8.690;2023-04-03T02:59:00;0.83;;;0.83;;
22907;SDS011;11620;50.050;8.690;2023-04-03T03:01:46;0.70;;;0.70;;
22907;SDS011;11620;50.050;8.690;2023-04-03T03:04:32;0.80;;;0.80;;
22907;SDS011;11620;50.050;8.690;2023-04-03T03:07:19;0.80;;;0.80;;
22907;SDS011;11620;50.050;8.690;2023-04-03T03:10:05;0.80;;;0.80;;
22907;SDS011;11620;50.050;8.690;2023-04-03T03:12:52;0.70;;;0.70;;
22907;SDS011;11620;50.050;8.690;2023-04-03T03:15:38;0.70;;;0.70;;
22907;SDS011;11620;50.050;8.690;2023-04-03T03:18:24;0.67;;;0.67;;
22907;SDS011;11620;50.050;8.690;2023-04-03T03:21:11;0.80;;;0.80;;
22907;SDS011;11620;50.050;8.690;2023-04-03T03:23:57;0.70;;;0.70;;
22907;SDS011;11620;50.050;8.690;2023-04-03T03:26:44;0.80;;;0.80;;
22907;SDS011;11620;50.050;8.690;2023-04-03T03:29:30;0.70;;;0.70;;
22907;SDS011;11620;50.050;8.690;2023-04-03T03:32:16;0.80;;;0.80;;
22907;SDS011;11620;50.050;8.690;2023-04-03T03:35:03;0.80;;;0.80;;
22907;SDS011;11620;50.050;8.690;2023-04-03T03:37:49;0.80;;;0.80;;
22907;SDS011;11620;50.050;8.690;2023-04-03T03:40:35;0.80;;;0.80;;
22907;SDS011;11620;50.050;8.690;2023-04-03T03:43:22;0.80;;;0.80;;
22907;SDS011;11620;50.050;8.690;2023-04-03T03:46:08;0.90;;;0.90;;
22907;SDS011;11620;50.050;8.690;2023-04-03T03:48:54;0.80;;;0.80;;
22907;SDS011;11620;50.050;8.690;2023-04-03T03:51:41;0.80;;;0.80;;
22907;SDS011;11620;50.050;8.690;2023-04-03T03:54:27;0.70;;;0.70;;
22907;SDS011;11620;50.050;8.690;2023-04-03T03:57:13;0.90;;;0.90;;
22907;SDS011;11620;50.050;8.690;2023-04-03T04:00:01;0.80;;;0.80;;
22907;SDS011;11620;50.050;8.690;2023-04-03T04:02:47;0.83;;;0.83;;
22907;SDS011;11620;50.050;8.690;2023-04-03T04:05:33;0.80;;;0.80;;
22907;SDS011;11620;50.050;8.690;2023-04-03T04:08:20;0.80;;;0.80;;
22907;SDS011;11620;50.050;8.690;2023-04-03T04:11:06;0.70;;;0.70;;
22907;SDS011;11620;50.050;8.690;2023-04-03T04:13:53;0.80;;;0.80;;
22907;SDS011;11620;50.050;8.690;2023-04-03T04:16:40;0.63;;;0.63;;
22907;SDS011;11620;50.050;8.690;2023-04-03T04:19:26;0.70;;;0.70;;
22907;SDS011;11620;50.050;8.690;2023-04-03T04:22:12;0.80;;;0.80;;
22907;SDS011;11620;50.050;8.690;2023-04-03T04:24:59;0.80;;;0.80;;
22907;SDS011;11620;50.050;8.690;2023-04-03T04:27:45;0.70;;;0.70;;
22907;SDS011;11620;50.050;8.690;2023-04-03T04:30:31;0.80;;;0.80;;
22907;SDS011;11620;50.050;8.690;2023-04-03T04:33:18;0.60;;;0.60;;
22907;SDS011;11620;50.050;8.690;2023-04-03T04:36:04;0.80;;;0.80;;
22907;SDS011;11620;50.050;8.690;2023-04-03T04:38:51;0.80;;;0.80;;
22907;SDS011;11620;50.050;8.690;2023-04-03T04:41:38;0.70;;;0.70;;
22907;SDS011;11620;50.050;8.690;2023-04-03T04:44:24;0.80;;;0.80;;
22907;SDS011;11620;50.050;8.690;2023-04-03T04:47:11;0.77;;;0.77;;
22907;SDS011;11620;50.050;8.690;2023-04-03T04:49:57;0.80;;;0.80;;
22907;SDS011;11620;50.050;8.690;2023-04-03T04:52:43;0.70;;;0.70;;
22907;SDS011;11620;50.050;8.690;2023-04-03T04:55:30;0.80;;;0.80;;
22907;SDS011;11620;50.050;8.690;2023-04-03T04:58:16;0.80;;;0.80;;
22907;SDS011;11620;50.050;8.690;2023-04-03T05:01:03;0.80;;;0.80;;
22907;SDS011;11620;50.050;8.690;2023-04-03T05:03:55;0.90;;;0.90;;
22907;SDS011;11620;50.050;8.690;2023-04-03T05:06:41;0.63;;;0.63;;
22907;SDS011;11620;50.050;8.690;2023-04-03T05:09:27;0.70;;;0.70;;
22907;SDS011;11620;50.050;8.690;2023-04-03T05:12:13;0.80;;;0.80;;
22907;SDS011;11620;50.050;8.690;2023-04-03T05:15:00;0.80;;;0.80;;
22907;SDS011;11620;50.050;8.690;2023-04-03T05:17:46;0.80;;;0.80;;
22907;SDS011;11620;50.050;8.690;2023-04-03T05:20:32;0.80;;;0.80;;
22907;SDS011;11620;50.050;8.690;2023-04-03T05:23:21;0.80;;;0.80;;
22907;SDS011;11620;50.050;8.690;2023-04-03T05:26:16;0.80;;;0.80;;
22907;SDS011;11620;50.050;8.690;2023-04-03T05:29:02;0.80;;;0.80;;
22907;SDS011;11620;50.050;8.690;2023-04-03T05:31:49;0.77;;;0.77;;
22907;SDS011;11620;50.050;8.690;2023-04-03T05:34:36;0.90;;;0.90;;
22907;SDS011;11620;50.050;8.690;2023-04-03T05:37:22;0.80;;;0.80;;
22907;SDS011;11620;50.050;8.690;2023-04-03T05:40:08;0.80;;;0.80;;
22907;SDS011;11620;50.050;8.690;2023-04-03T05:42:55;0.90;;;0.90;;
22907;SDS011;11620;50.050;8.690;2023-04-03T05:45:42;0.90;;;0.90;;
22907;SDS011;11620;50.050;8.690;2023-04-03T05:48:29;0.80;;;0.80;;
22907;SDS011;11620;50.050;8.690;2023-04-03T05:51:23;0.80;;;0.80;;
22907;SDS011;11620;50.050;8.690;2023-04-03T05:54:47;0.90;;;0.90;;
22907;SDS011;11620;50.050;8.690;2023-04-03T05:57:26;0.90;;;0.90;;
22907;SDS011;11620;50.050;8.690;2023-04-03T06:00:13;1.10;;;1.10;;
22907;SDS011;11620;50.050;8.690;2023-04-03T06:03:01;1.00;;;1.00;;
22907;SDS011;11620;50.050;8.690;2023-04-03T06:05:47;1.00;;;1.00;;
22907;SDS011;11620;50.050;8.690;2023-04-03T06:08:34;0.93;;;0.93;;
22907;SDS011;11620;50.050;8.690;2023-04-03T06:11:20;1.00;;;1.00;;
22907;SDS011;11620;50.050;8.690;2023-04-03T06:14:08;1.10;;;1.10;;
22907;SDS011;11620;50.050;8.690;2023-04-03T06:16:55;1.00;;;1.00;;
22907;SDS011;11620;50.050;8.690;2023-04-03T06:19:41;0.90;;;0.90;;
22907;SDS011;11620;50.050;8.690;2023-04-03T06:22:28;0.90;;;0.90;;
22907;SDS011;11620;50.050;8.690;2023-04-03T06:25:15;0.87;;;0.87;;
22907;SDS011;11620;50.050;8.690;2023-04-03T06:28:04;0.90;;;0.90;;
22907;SDS011;11620;50.050;8.690;2023-04-03T06:30:51;0.90;;;0.90;;
22907;SDS011;11620;50.050;8.690;2023-04-03T06:33:37;0.90;;;0.90;;
22907;SDS011;11620;50.050;8.690;2023-04-03T06:36:23;0.97;;;0.97;;
22907;SDS011;11620;50.050;8.690;2023-04-03T06:39:14;0.90;;;0.90;;
22907;SDS011;11620;50.050;8.690;2023-04-03T06:42:02;1.10;;;1.10;;
22907;SDS011;11620;50.050;8.690;2023-04-03T06:44:49;0.93;;;0.93;;
22907;SDS011;11620;50.050;8.690;2023-04-03T06:47:35;0.90;;;0.90;;
22907;SDS011;11620;50.050;8.690;2023-04-03T06:50:21;0.90;;;0.90;;
22907;SDS011;11620;50.050;8.690;2023-04-03T06:53:08;0.90;;;0.90;;
22907;SDS011;11620;50.050;8.690;2023-04-03T06:55:55;0.90;;;0.90;;
22907;SDS011;11620;50.050;8.690;2023-04-03T06:58:41;1.00;;;1.00;;
22907;SDS011;11620;50.050;8.690;2023-04-03T07:01:28;0.93;;;0.93;;
22907;SDS011;11620;50.050;8.690;2023-04-03T07:04:15;1.00;;;1.00;;
22907;SDS011;11620;50.050;8.690;2023-04-03T07:07:01;1.00;;;1.00;;
22907;SDS011;11620;50.050;8.690;2023-04-03T07:09:48;1.00;;;1.00;;
22907;SDS011;11620;50.050;8.690;2023-04-03T07:12:35;1.00;;;1.00;;
22907;SDS011;11620;50.050;8.690;2023-04-03T07:15:21;1.10;;;1.10;;
22907;SDS011;11620;50.050;8.690;2023-04-03T07:18:08;1.00;;;1.00;;
22907;SDS011;11620;50.050;8.690;2023-04-03T07:20:54;1.00;;;1.00;;
22907;SDS011;11620;50.050;8.690;2023-04-03T07:23:41;1.10;;;1.10;;
22907;SDS011;11620;50.050;8.690;2023-04-03T07:26:27;1.10;;;1.10;;
22907;SDS011;11620;50.050;8.690;2023-04-03T07:29:13;1.00;;;1.00;;
22907;SDS011;11620;50.050;8.690;2023-04-03T07:32:00;1.00;;;1.00;;
22907;SDS011;11620;50.050;8.690;2023-04-03T07:34:47;1.00;;;1.00;;
22907;SDS011;11620;50.050;8.690;2023-04-03T07:37:33;1.00;;;1.00;;
22907;SDS011;11620;50.050;8.690;2023-04-03T07:40:19;1.00;;;1.00;;
22907;SDS011;11620;50.050;8.690;2023-04-03T07:43:06;1.10;;;1.10;;
22907;SDS011;11620;50.050;8.690;2023-04-03T07:45:53;0.90;;;0.90;;
22907;SDS011;11620;50.050;8.690;2023-04-03T07:48:40;1.00;;;1.00;;
22907;SDS011;11620;50.050;8.690;2023-04-03T07:51:26;1.00;;;1.00;;
22907;SDS011;11620;50.050;8.690;2023-04-03T07:54:14;1.00;;;1.00;;
22907;SDS011;11620;50.050;8.690;2023-04-03T07:57:00;1.10;;;1.10;;
22907;SDS011;11620;50.050;8.690;2023-04-03T07:59:47;1.00;;;1.00;;
22907;SDS011;11620;50.050;8.690;2023-04-03T08:02:33;0.90;;;0.90;;
22907;SDS011;11620;50.050;8.690;2023-04-03T08:05:20;1.00;;;1.00;;
22907;SDS011;11620;50.050;8.690;2023-04-03T08:08:07;1.00;;;1.00;;
22907;SDS011;11620;50.050;8.690;2023-04-03T08:10:54;1.00;;;1.00;;
22907;SDS011;11620;50.050;8.690;2023-04-03T08:13:43;1.00;;;1.00;;
22907;SDS011;11620;50.050;8.690;2023-04-03T08:16:29;1.10;;;1.10;;
22907;SDS011;11620;50.050;8.690;2023-04-03T08:19:16;1.00;;;1.00;;
22907;SDS011;11620;50.050;8.690;2023-04-03T08:22:03;0.90;;;0.90;;
22907;SDS011;11620;50.050;8.690;2023-04-03T08:24:50;1.03;;;1.03;;
22907;SDS011;11620;50.050;8.690;2023-04-03T08:27:37;1.00;;;1.00;;
22907;SDS011;11620;50.050;8.690;2023-04-03T08:30:23;1.00;;;1.00;;
22907;SDS011;11620;50.050;8.690;2023-04-03T08:33:10;1.10;;;1.10;;
22907;SDS011;11620;50.050;8.690;2023-04-03T08:35:56;1.00;;;1.00;;
22907;SDS011;11620;50.050;8.690;2023-04-03T08:38:43;1.00;;;1.00;;
22907;SDS011;11620;50.050;8.690;2023-04-03T08:41:36;0.90;;;0.90;;
22907;SDS011;11620;50.050;8.690;2023-04-03T08:44:46;1.07;;;1.07;;
22907;SDS011;11620;50.050;8.690;2023-04-03T08:50:46;1.00;;;1.00;;
22907;SDS011;11620;50.050;8.690;2023-04-03T08:53:36;0.97;;;0.97;;
22907;SDS011;11620;50.050;8.690;2023-04-03T08:56:25;1.00;;;1.00;;
22907;SDS011;11620;50.050;8.690;2023-04-03T08:59:13;0.90;;;0.90;;
22907;SDS011;11620;50.050;8.690;2023-04-03T09:02:24;0.80;;;0.80;;
22907;SDS011;11620;50.050;8.690;2023-04-03T09:05:17;1.00;;;1.00;;
22907;SDS011;11620;50.050;8.690;2023-04-03T09:08:27;1.00;;;1.00;;
22907;SDS011;11620;50.050;8.690;2023-04-03T09:11:41;0.70;;;0.70;;
22907;SDS011;11620;50.050;8.690;2023-04-03T09:20:53;0.80;;;0.80;;
22907;SDS011;11620;50.050;8.690;2023-04-03T09:24:02;0.80;;;0.80;;
22907;SDS011;11620;50.050;8.690;2023-04-03T09:27:03;0.90;;;0.90;;
22907;SDS011;11620;50.050;8.690;2023-04-03T09:29:52;1.00;;;1.00;;
22907;SDS011;11620;50.050;8.690;2023-04-03T09:32:40;1.07;;;1.07;;
22907;SDS011;11620;50.050;8.690;2023-04-03T09:35:33;0.90;;;0.90;;
22907;SDS011;11620;50.050;8.690;2023-04-03T09:38:22;0.60;;;0.60;;
22907;SDS011;11620;50.050;8.690;2023-04-03T09:41:17;0.80;;;0.80;;
22907;SDS011;11620;50.050;8.690;2023-04-03T09:44:17;0.70;;;0.70;;
22907;SDS011;11620;50.050;8.690;2023-04-03T09:47:17;0.90;;;0.90;;
22907;SDS011;11620;50.050;8.690;2023-04-03T09:53:02;0.88;;;0.88;;
22907;SDS011;11620;50.050;8.690;2023-04-03T09:55:52;0.60;;;0.60;;
22907;SDS011;11620;50.050;8.690;2023-04-03T09:58:39;1.00;;;1.00;;
22907;SDS011;11620;50.050;8.690;2023-04-03T10:01:31;0.90;;;0.90;;
22907;SDS011;11620;50.050;8.690;2023-04-03T10:04:19;0.80;;;0.80;;
22907;SDS011;11620;50.050;8.690;2023-04-03T10:10:27;0.90;;;0.90;;
22907;SDS011;11620;50.050;8.690;2023-04-03T10:13:14;0.90;;;0.90;;
22907;SDS011;11620;50.050;8.690;2023-04-03T10:16:07;0.60;;;0.60;;
22907;SDS011;11620;50.050;8.690;2023-04-03T10:19:02;0.65;;;0.65;;
22907;SDS011;11620;50.050;8.690;2023-04-03T10:22:34;0.93;;;0.93;;
22907;SDS011;11620;50.050;8.690;2023-04-03T10:25:30;0.68;;;0.68;;
22907;SDS011;11620;50.050;8.690;2023-04-03T10:34:30;0.80;;;0.80;;
22907;SDS011;11620;50.050;8.690;2023-04-03T10:37:22;0.70;;;0.70;;
22907;SDS011;11620;50.050;8.690;2023-04-03T10:43:43;0.70;;;0.70;;
22907;SDS011;11620;50.050;8.690;2023-04-03T10:46:52;0.63;;;0.63;;
22907;SDS011;11620;50.050;8.690;2023-04-03T10:52:48;0.70;;;0.70;;
22907;SDS011;11620;50.050;8.690;2023-04-03T11:02:52;0.70;;;0.70;;
22907;SDS011;11620;50.050;8.690;2023-04-03T11:08:44;0.60;;;0.60;;
22907;SDS011;11620;50.050;8.690;2023-04-03T11:11:35;0.68;;;0.68;;
22907;SDS011;11620;50.050;8.690;2023-04-03T11:14:26;0.60;;;0.60;;
22907;SDS011;11620;50.050;8.690;2023-04-03T11:20:17;0.70;;;0.70;;
22907;SDS011;11620;50.050;8.690;2023-04-03T11:23:20;0.60;;;0.60;;
22907;SDS011;11620;50.050;8.690;2023-04-03T11:26:18;0.70;;;0.70;;
22907;SDS011;11620;50.050;8.690;2023-04-03T11:29:14;0.60;;;0.60;;
22907;SDS011;11620;50.050;8.690;2023-04-03T11:35:18;0.70;;;0.70;;
22907;SDS011;11620;50.050;8.690;2023-04-03T11:38:07;0.57;;;0.57;;
22907;SDS011;11620;50.050;8.690;2023-04-03T11:41:08;0.80;;;0.80;;
22907;SDS011;11620;50.050;8.690;2023-04-03T11:44:32;0.68;;;0.68;;
22907;SDS011;11620;50.050;8.690;2023-04-03T11:53:36;0.70;;;0.70;;
22907;SDS011;11620;50.050;8.690;2023-04-03T12:01:57;0.60;;;0.60;;
22907;SDS011;11620;50.050;8.690;2023-04-03T12:04:46;0.70;;;0.70;;
22907;SDS011;11620;50.050;8.690;2023-04-03T12:08:28;0.80;;;0.80;;
22907;SDS011;11620;50.050;8.690;2023-04-03T12:11:30;0.50;;;0.50;;
22907;SDS011;11620;50.050;8.690;2023-04-03T12:14:18;0.60;;;0.60;;
22907;SDS011;11620;50.050;8.690;2023-04-03T12:17:11;0.60;;;0.60;;
22907;SDS011;11620;50.050;8.690;2023-04-03T12:23:33;0.60;;;0.60;;
22907;SDS011;11620;50.050;8.690;2023-04-03T12:26:22;0.70;;;0.70;;
22907;SDS011;11620;50.050;8.690;2023-04-03T12:32:22;0.70;;;0.70;;
22907;SDS011;11620;50.050;8.690;2023-04-03T12:35:29;0.70;;;0.70;;
22907;SDS011;11620;50.050;8.690;2023-04-03T12:38:23;0.60;;;0.60;;
22907;SDS011;11620;50.050;8.690;2023-04-03T12:47:51;0.60;;;0.60;;
22907;SDS011;11620;50.050;8.690;2023-04-03T12:50:39;0.60;;;0.60;;
22907;SDS011;11620;50.050;8.690;2023-04-03T12:53:28;0.60;;;0.60;;
22907;SDS011;11620;50.050;8.690;2023-04-03T12:56:29;0.70;;;0.70;;
22907;SDS011;11620;50.050;8.690;2023-04-03T12:59:26;0.60;;;0.60;;
22907;SDS011;11620;50.050;8.690;2023-04-03T13:02:34;0.60;;;0.60;;
22907;SDS011;11620;50.050;8.690;2023-04-03T13:05:20;0.60;;;0.60;;
22907;SDS011;11620;50.050;8.690;2023-04-03T13:08:10;0.60;;;0.60;;
22907;SDS011;11620;50.050;8.690;2023-04-03T13:11:02;0.80;;;0.80;;
22907;SDS011;11620;50.050;8.690;2023-04-03T13:16:56;0.60;;;0.60;;
22907;SDS011;11620;50.050;8.690;2023-04-03T13:19:50;0.70;;;0.70;;
22907;SDS011;11620;50.050;8.690;2023-04-03T13:22:39;0.65;;;0.65;;
22907;SDS011;11620;50.050;8.690;2023-04-03T13:25:33;0.70;;;0.70;;
22907;SDS011;11620;50.050;8.690;2023-04-03T13:28:23;0.60;;;0.60;;
22907;SDS011;11620;50.050;8.690;2023-04-03T13:34:07;0.70;;;0.70;;
22907;SDS011;11620;50.050;8.690;2023-04-03T13:36:58;0.70;;;0.70;;
22907;SDS011;11620;50.050;8.690;2023-04-03T13:39:55;0.50;;;0.50;;
22907;SDS011;11620;50.050;8.690;2023-04-03T13:43:03;0.60;;;0.60;;
22907;SDS011;11620;50.050;8.690;2023-04-03T13:48:48;0.57;;;0.57;;
22907;SDS011;11620;50.050;8.690;2023-04-03T13:51:37;0.50;;;0.50;;
22907;SDS011;11620;50.050;8.690;2023-04-03T13:54:28;0.70;;;0.70;;
22907;SDS011;11620;50.050;8.690;2023-04-03T13:57:18;0.60;;;0.60;;
22907;SDS011;11620;50.050;8.690;2023-04-03T14:00:22;0.55;;;0.55;;
22907;SDS011;11620;50.050;8.690;2023-04-03T14:03:16;0.52;;;0.52;;
22907;SDS011;11620;50.050;8.690;2023-04-03T14:06:08;0.80;;;0.80;;
22907;SDS011;11620;50.050;8.690;2023-04-03T14:08:58;0.60;;;0.60;;
22907;SDS011;11620;50.050;8.690;2023-04-03T14:11:44;0.60;;;0.60;;
22907;SDS011;11620;50.050;8.690;2023-04-03T14:14:33;0.68;;;0.68;;
22907;SDS011;11620;50.050;8.690;2023-04-03T14:17:22;0.57;;;0.57;;
22907;SDS011;11620;50.050;8.690;2023-04-03T14:20:14;0.60;;;0.60;;
22907;SDS011;11620;50.050;8.690;2023-04-03T14:23:06;0.63;;;0.63;;
22907;SDS011;11620;50.050;8.690;2023-04-03T14:25:52;0.70;;;0.70;;
22907;SDS011;11620;50.050;8.690;2023-04-03T14:28:37;0.60;;;0.60;;
22907;SDS011;11620;50.050;8.690;2023-04-03T14:31:23;0.60;;;0.60;;
22907;SDS011;11620;50.050;8.690;2023-04-03T14:34:09;0.70;;;0.70;;
22907;SDS011;11620;50.050;8.690;2023-04-03T14:36:57;0.50;;;0.50;;
22907;SDS011;11620;50.050;8.690;2023-04-03T14:39:44;0.60;;;0.60;;
22907;SDS011;11620;50.050;8.690;2023-04-03T14:42:32;0.60;;;0.60;;
22907;SDS011;11620;50.050;8.690;2023-04-03T14:45:21;0.60;;;0.60;;
22907;SDS011;11620;50.050;8.690;2023-04-03T14:48:21;0.70;;;0.70;;
22907;SDS011;11620;50.050;8.690;2023-04-03T14:51:11;0.63;;;0.63;;
22907;SDS011;11620;50.050;8.690;2023-04-03T14:53:58;0.70;;;0.70;;
22907;SDS011;11620;50.050;8.690;2023-04-03T14:56:46;0.60;;;0.60;;
22907;SDS011;11620;50.050;8.690;2023-04-03T14:59:33;0.60;;;0.60;;
22907;SDS011;11620;50.050;8.690;2023-04-03T15:05:16;0.70;;;0.70;;
22907;SDS011;11620;50.050;8.690;2023-04-03T15:08:03;0.70;;;0.70;;
22907;SDS011;11620;50.050;8.690;2023-04-03T15:10:49;0.70;;;0.70;;
22907;SDS011;11620;50.050;8.690;2023-04-03T15:13:38;0.60;;;0.60;;
22907;SDS011;11620;50.050;8.690;2023-04-03T15:16:25;0.63;;;0.63;;
22907;SDS011;11620;50.050;8.690;2023-04-03T15:19:12;0.68;;;0.68;;
22907;SDS011;11620;50.050;8.690;2023-04-03T15:21:58;0.60;;;0.60;;
22907;SDS011;11620;50.050;8.690;2023-04-03T15:24:45;0.65;;;0.65;;
22907;SDS011;11620;50.050;8.690;2023-04-03T15:27:32;0.63;;;0.63;;
22907;SDS011;11620;50.050;8.690;2023-04-03T15:30:18;0.70;;;0.70;;
22907;SDS011;11620;50.050;8.690;2023-04-03T15:33:05;0.60;;;0.60;;
22907;SDS011;11620;50.050;8.690;2023-04-03T15:35:51;0.60;;;0.60;;
22907;SDS011;11620;50.050;8.690;2023-04-03T15:38:38;0.70;;;0.70;;
22907;SDS011;11620;50.050;8.690;2023-04-03T15:41:24;0.60;;;0.60;;
22907;SDS011;11620;50.050;8.690;2023-04-03T15:44:11;0.70;;;0.70;;
22907;SDS011;11620;50.050;8.690;2023-04-03T15:46:58;0.60;;;0.60;;
22907;SDS011;11620;50.050;8.690;2023-04-03T15:49:45;0.63;;;0.63;;
22907;SDS011;11620;50.050;8.690;2023-04-03T15:52:31;0.70;;;0.70;;
22907;SDS011;11620;50.050;8.690;2023-04-03T15:55:17;0.70;;;0.70;;
22907;SDS011;11620;50.050;8.690;2023-04-03T15:58:04;0.70;;;0.70;;
22907;SDS011;11620;50.050;8.690;2023-04-03T16:00:51;0.67;;;0.67;;
22907;SDS011;11620;50.050;8.690;2023-04-03T16:03:37;0.70;;;0.70;;
22907;SDS011;11620;50.050;8.690;2023-04-03T16:06:30;0.70;;;0.70;;
22907;SDS011;11620;50.050;8.690;2023-04-03T16:09:18;0.60;;;0.60;;
22907;SDS011;11620;50.050;8.690;2023-04-03T16:12:05;0.60;;;0.60;;
22907;SDS011;11620;50.050;8.690;2023-04-03T16:14:51;0.70;;;0.70;;
22907;SDS011;11620;50.050;8.690;2023-04-03T16:17:38;0.70;;;0.70;;
22907;SDS011;11620;50.050;8.690;2023-04-03T16:20:29;0.60;;;0.60;;
22907;SDS011;11620;50.050;8.690;2023-04-03T16:23:16;0.60;;;0.60;;
22907;SDS011;11620;50.050;8.690;2023-04-03T16:26:02;0.80;;;0.80;;
22907;SDS011;11620;50.050;8.690;2023-04-03T16:28:48;0.80;;;0.80;;
22907;SDS011;11620;50.050;8.690;2023-04-03T16:31:35;0.70;;;0.70;;
22907;SDS011;11620;50.050;8.690;2023-04-03T16:34:21;0.80;;;0.80;;
22907;SDS011;11620;50.050;8.690;2023-04-03T16:37:08;0.60;;;0.60;;
22907;SDS011;11620;50.050;8.690;2023-04-03T16:39:54;0.80;;;0.80;;
22907;SDS011;11620;50.050;8.690;2023-04-03T16:42:40;0.60;;;0.60;;
22907;SDS011;11620;50.050;8.690;2023-04-03T16:45:27;0.70;;;0.70;;
22907;SDS011;11620;50.050;8.690;2023-04-03T16:48:13;0.70;;;0.70;;
22907;SDS011;11620;50.050;8.690;2023-04-03T16:51:00;0.70;;;0.70;;
22907;SDS011;11620;50.050;8.690;2023-04-03T16:53:46;0.80;;;0.80;;
22907;SDS011;11620;50.050;8.690;2023-04-03T16:56:32;0.67;;;0.67;;
22907;SDS011;11620;50.050;8.690;2023-04-03T16:59:19;0.60;;;0.60;;
22907;SDS011;11620;50.050;8.690;2023-04-03T17:02:05;0.63;;;0.63;;
22907;SDS011;11620;50.050;8.690;2023-04-03T17:04:52;0.80;;;0.80;;
22907;SDS011;11620;50.050;8.690;2023-04-03T17:07:39;0.70;;;0.70;;
22907;SDS011;11620;50.050;8.690;2023-04-03T17:10:25;0.60;;;0.60;;
22907;SDS011;11620;50.050;8.690;2023-04-03T17:13:12;0.60;;;0.60;;
22907;SDS011;11620;50.050;8.690;2023-04-03T17:15:59;0.67;;;0.67;;
22907;SDS011;11620;50.050;8.690;2023-04-03T17:18:48;0.70;;;0.70;;
22907;SDS011;11620;50.050;8.690;2023-04-03T17:21:34;0.70;;;0.70;;
22907;SDS011;11620;50.050;8.690;2023-04-03T17:24:21;0.60;;;0.60;;
22907;SDS011;11620;50.050;8.690;2023-04-03T17:27:08;0.70;;;0.70;;
22907;SDS011;11620;50.050;8.690;2023-04-03T17:29:54;0.60;;;0.60;;
22907;SDS011;11620;50.050;8.690;2023-04-03T17:32:40;0.60;;;0.60;;
22907;SDS011;11620;50.050;8.690;2023-04-03T17:35:27;0.70;;;0.70;;
22907;SDS011;11620;50.050;8.690;2023-04-03T17:38:13;0.73;;;0.73;;
22907;SDS011;11620;50.050;8.690;2023-04-03T17:41:01;0.87;;;0.87;;
22907;SDS011;11620;50.050;8.690;2023-04-03T17:43:49;0.70;;;0.70;;
22907;SDS011;11620;50.050;8.690;2023-04-03T17:46:36;0.80;;;0.80;;
22907;SDS011;11620;50.050;8.690;2023-04-03T17:49:22;0.73;;;0.73;;
22907;SDS011;11620;50.050;8.690;2023-04-03T17:52:09;0.70;;;0.70;;
22907;SDS011;11620;50.050;8.690;2023-04-03T17:54:56;0.70;;;0.70;;
22907;SDS011;11620;50.050;8.690;2023-04-03T17:57:42;0.77;;;0.77;;
22907;SDS011;11620;50.050;8.690;2023-04-03T18:00:28;0.70;;;0.70;;
22907;SDS011;11620;50.050;8.690;2023-04-03T18:03:15;0.80;;;0.80;;
22907;SDS011;11620;50.050;8.690;2023-04-03T18:06:02;0.53;;;0.53;;
22907;SDS011;11620;50.050;8.690;2023-04-03T18:08:51;0.60;;;0.60;;
22907;SDS011;11620;50.050;8.690;2023-04-03T18:11:40;0.70;;;0.70;;
22907;SDS011;11620;50.050;8.690;2023-04-03T18:14:28;0.70;;;0.70;;
22907;SDS011;11620;50.050;8.690;2023-04-03T18:17:14;0.60;;;0.60;;
22907;SDS011;11620;50.050;8.690;2023-04-03T18:20:01;0.70;;;0.70;;
22907;SDS011;11620;50.050;8.690;2023-04-03T18:22:48;0.80;;;0.80;;